createdAt,value
2022-10-21T00:00:50.876Z,0.97
2022-10-21T00:03:18.567Z,0.90
2022-10-21T00:05:45.747Z,0.81
2022-10-21T00:08:13.111Z,0.83
2022-10-21T00:10:43.001Z,0.84
2022-10-21T00:13:09.920Z,0.88
2022-10-21T00:15:39.076Z,0.94
2022-10-21T00:18:06.128Z,0.93
2022-10-21T00:20:35.957Z,0.91
2022-10-21T00:23:06.356Z,0.88
2022-10-21T00:25:33.472Z,0.88
2022-10-21T00:28:00.327Z,0.90
2022-10-21T00:30:27.386Z,0.89
2022-10-21T00:32:55.672Z,0.88
2022-10-21T00:35:27.764Z,0.90
2022-10-21T00:37:54.718Z,0.89
2022-10-21T00:40:21.549Z,0.91
2022-10-21T00:42:51.195Z,0.91
2022-10-21T00:45:32.075Z,0.94
2022-10-21T00:48:08.821Z,0.95
2022-10-21T00:50:43.762Z,0.89
2022-10-21T00:53:14.516Z,0.85
2022-10-21T00:55:47.243Z,0.87
2022-10-21T00:58:16.072Z,0.88
2022-10-21T01:00:45.866Z,0.86
2022-10-21T01:03:12.912Z,0.83
2022-10-21T01:05:40.806Z,0.80
2022-10-21T01:08:07.772Z,0.75
2022-10-21T01:10:35.820Z,0.75
2022-10-21T01:13:18.992Z,0.70
2022-10-21T01:16:03.607Z,0.71
2022-10-21T01:18:54.927Z,0.65
2022-10-21T01:21:46.939Z,0.63
2022-10-21T01:24:36.111Z,0.63
2022-10-21T01:27:25.217Z,0.61
2022-10-21T01:30:10.914Z,0.70
2022-10-21T01:32:56.223Z,0.70
2022-10-21T01:35:23.320Z,0.65
2022-10-21T01:38:10.442Z,0.68
2022-10-21T01:40:59.346Z,0.70
2022-10-21T01:43:44.897Z,0.71
2022-10-21T01:46:16.422Z,0.72
2022-10-21T01:48:51.518Z,0.74
2022-10-21T01:51:19.467Z,0.66
2022-10-21T01:53:53.076Z,0.63
2022-10-21T01:56:21.458Z,0.64
2022-10-21T01:58:52.052Z,0.62
2022-10-21T02:01:19.606Z,0.60
2022-10-21T02:03:49.714Z,0.60
2022-10-21T02:06:19.360Z,0.60
2022-10-21T02:08:49.479Z,0.63
2022-10-21T02:11:19.077Z,0.64
2022-10-21T02:13:53.324Z,0.62
2022-10-21T02:16:24.469Z,0.63
2022-10-21T02:19:16.415Z,0.66
2022-10-21T02:21:47.169Z,0.67
2022-10-21T02:24:22.569Z,0.64
2022-10-21T02:26:49.634Z,0.61
2022-10-21T02:29:22.167Z,0.62
2022-10-21T02:32:26.990Z,0.61
2022-10-21T02:35:09.387Z,0.60
2022-10-21T02:37:49.088Z,0.55
2022-10-21T02:40:31.434Z,0.55
2022-10-21T02:43:03.353Z,0.55
2022-10-21T02:45:30.686Z,0.53
2022-10-21T02:47:57.559Z,0.51
2022-10-21T02:50:24.464Z,0.53
2022-10-21T02:52:51.503Z,0.55
2022-10-21T02:55:18.523Z,0.57
2022-10-21T02:57:47.708Z,0.56
2022-10-21T03:00:15.059Z,0.57
2022-10-21T03:05:28.874Z,0.55
2022-10-21T03:07:55.803Z,0.61
2022-10-21T03:10:22.703Z,0.62
2022-10-21T03:12:50.361Z,0.62
2022-10-21T03:15:18.092Z,0.63
2022-10-21T03:17:44.980Z,0.60
2022-10-21T03:20:12.200Z,0.59
2022-10-21T03:22:39.201Z,0.58
2022-10-21T03:25:06.940Z,0.58
2022-10-21T03:27:37.972Z,0.58
2022-10-21T03:30:06.379Z,0.61
2022-10-21T03:32:33.779Z,0.58
2022-10-21T03:35:00.727Z,0.58
2022-10-21T03:37:27.921Z,0.62
2022-10-21T03:39:54.810Z,0.64
2022-10-21T03:42:21.715Z,0.67
2022-10-21T03:44:49.139Z,0.68
2022-10-21T03:47:16.443Z,0.66
2022-10-21T03:49:44.584Z,0.63
2022-10-21T03:52:14.679Z,0.59
2022-10-21T03:54:42.890Z,0.60
2022-10-21T03:57:11.780Z,0.61
2022-10-21T03:59:38.710Z,0.67
2022-10-21T04:02:05.785Z,0.70
2022-10-21T04:04:32.929Z,0.72
2022-10-21T04:06:59.977Z,0.77
2022-10-21T04:09:32.467Z,0.69
2022-10-21T04:12:02.015Z,0.76
2022-10-21T04:14:31.641Z,0.80
2022-10-21T04:17:06.863Z,0.76
2022-10-21T04:19:34.290Z,0.74
2022-10-21T04:22:01.268Z,0.72
2022-10-21T04:24:28.179Z,0.76
2022-10-21T04:26:55.184Z,0.77
2022-10-21T04:29:22.272Z,0.75
2022-10-21T04:31:49.268Z,0.78
2022-10-21T04:34:16.358Z,0.80
2022-10-21T04:36:43.301Z,0.82
2022-10-21T04:39:11.249Z,0.83
2022-10-21T04:41:38.375Z,0.83
2022-10-21T04:44:06.900Z,0.81
2022-10-21T04:46:33.997Z,0.81
2022-10-21T04:49:01.047Z,0.82
2022-10-21T04:51:28.395Z,0.89
2022-10-21T04:53:55.513Z,0.92
2022-10-21T04:56:22.836Z,0.95
2022-10-21T04:58:52.911Z,0.96
2022-10-21T05:01:25.410Z,1.04
2022-10-21T05:03:54.458Z,1.08
2022-10-21T05:06:21.370Z,1.12
2022-10-21T05:08:48.339Z,1.16
2022-10-21T05:11:15.408Z,1.19
2022-10-21T05:13:42.349Z,1.17
2022-10-21T05:16:09.411Z,1.19
2022-10-21T05:18:36.511Z,1.21
2022-10-21T05:21:06.117Z,1.20
2022-10-21T05:23:33.122Z,1.23
2022-10-21T05:26:00.098Z,1.24
2022-10-21T05:28:26.968Z,1.29
2022-10-21T05:30:53.911Z,1.32
2022-10-21T05:33:20.927Z,1.33
2022-10-21T05:36:01.003Z,1.38
2022-10-21T05:38:31.458Z,1.32
2022-10-21T05:40:59.076Z,1.34
2022-10-21T05:43:26.280Z,1.35
2022-10-21T05:45:56.872Z,1.32
2022-10-21T05:48:25.428Z,1.39
2022-10-21T05:50:54.219Z,1.44
2022-10-21T05:53:23.971Z,1.44
2022-10-21T05:56:08.069Z,1.47
2022-10-21T05:58:35.778Z,1.47
2022-10-21T06:01:02.954Z,1.45
2022-10-21T06:03:32.544Z,1.47
2022-10-21T06:06:01.628Z,1.48
2022-10-21T06:08:29.272Z,1.47
2022-10-21T06:11:15.911Z,1.49
2022-10-21T06:13:43.205Z,1.55
2022-10-21T06:16:11.373Z,1.56
2022-10-21T06:18:39.054Z,1.59
2022-10-21T06:21:06.400Z,1.63
2022-10-21T06:23:33.675Z,1.74
2022-10-21T06:26:05.617Z,1.72
2022-10-21T06:28:36.701Z,1.76
2022-10-21T06:31:04.505Z,1.88
2022-10-21T06:33:31.840Z,1.99
2022-10-21T06:36:04.512Z,2.04
2022-10-21T06:38:33.233Z,2.09
2022-10-21T06:41:09.079Z,2.09
2022-10-21T06:43:39.333Z,2.10
2022-10-21T06:46:08.300Z,2.15
2022-10-21T06:48:35.644Z,2.22
2022-10-21T06:51:07.410Z,2.26
2022-10-21T06:53:38.233Z,2.21
2022-10-21T06:56:16.559Z,2.15
2022-10-21T06:59:03.215Z,2.09
2022-10-21T07:01:55.327Z,2.07
2022-10-21T07:04:20.276Z,2.15
2022-10-21T07:06:49.239Z,2.19
2022-10-21T07:09:16.721Z,2.17
2022-10-21T07:11:49.988Z,2.14
2022-10-21T07:14:16.959Z,2.18
2022-10-21T07:16:43.901Z,2.29
2022-10-21T07:19:12.509Z,2.38
2022-10-21T07:21:40.152Z,2.51
2022-10-21T07:24:07.270Z,2.54
2022-10-21T07:26:35.003Z,2.59
2022-10-21T07:29:02.299Z,2.65
2022-10-21T07:31:32.453Z,2.61
2022-10-21T07:36:38.605Z,2.63
2022-10-21T07:39:08.969Z,2.73
2022-10-21T07:41:41.580Z,2.82
2022-10-21T07:44:10.179Z,2.77
2022-10-21T07:46:38.495Z,2.79
2022-10-21T07:49:05.667Z,2.77
2022-10-21T07:51:32.916Z,2.75
2022-10-21T07:54:01.016Z,2.74
2022-10-21T07:56:39.599Z,2.75
2022-10-21T07:59:12.803Z,2.81
2022-10-21T08:01:45.218Z,2.89
2022-10-21T08:04:19.588Z,2.93
2022-10-21T08:06:50.237Z,2.93
2022-10-21T08:09:17.694Z,2.99
2022-10-21T08:11:45.089Z,2.88
2022-10-21T08:14:15.093Z,2.87
2022-10-21T08:16:45.725Z,2.96
2022-10-21T08:19:21.413Z,3.00
2022-10-21T08:21:51.211Z,2.95
2022-10-21T08:24:18.170Z,3.06
2022-10-21T08:26:45.189Z,3.03
2022-10-21T08:29:12.105Z,3.16
2022-10-21T08:31:39.780Z,3.12
2022-10-21T08:34:06.768Z,3.17
2022-10-21T08:36:33.730Z,3.19
2022-10-21T08:39:03.551Z,3.27
2022-10-21T08:41:30.643Z,3.22
2022-10-21T08:44:10.589Z,3.22
2022-10-21T08:46:50.219Z,3.36
2022-10-21T08:49:27.328Z,3.51
2022-10-21T08:52:06.798Z,3.55
2022-10-21T08:54:55.081Z,3.43
2022-10-21T08:57:24.852Z,3.60
2022-10-21T08:59:51.871Z,3.75
2022-10-21T09:02:32.814Z,3.83
2022-10-21T09:05:41.310Z,3.86
2022-10-21T09:08:15.018Z,3.96
2022-10-21T09:11:09.601Z,4.14
2022-10-21T09:13:56.965Z,4.22
2022-10-21T09:16:57.166Z,4.10
2022-10-21T09:19:45.161Z,4.03
2022-10-21T09:22:35.841Z,4.05
2022-10-21T09:25:25.923Z,4.04
2022-10-21T09:27:57.422Z,3.95
2022-10-21T09:30:24.924Z,3.83
2022-10-21T09:33:01.381Z,3.92
2022-10-21T09:35:36.196Z,4.01
2022-10-21T09:38:20.327Z,4.02
2022-10-21T09:40:51.344Z,4.11
2022-10-21T09:43:24.901Z,4.06
2022-10-21T09:45:52.414Z,3.99
2022-10-21T09:48:19.889Z,3.90
2022-10-21T09:50:55.741Z,3.92
2022-10-21T09:53:26.695Z,3.92
2022-10-21T09:56:06.603Z,3.97
2022-10-21T09:58:39.107Z,3.98
2022-10-21T10:01:06.705Z,4.04
2022-10-21T10:03:45.835Z,4.07
2022-10-21T10:06:15.636Z,4.11
2022-10-21T10:08:44.755Z,4.05
2022-10-21T10:11:18.888Z,3.92
2022-10-21T10:13:55.603Z,3.92
2022-10-21T10:16:35.821Z,3.93
2022-10-21T10:19:26.868Z,3.84
2022-10-21T10:22:14.505Z,3.93
2022-10-21T10:24:47.548Z,3.99
2022-10-21T10:27:30.525Z,4.06
2022-10-21T10:30:00.073Z,4.06
2022-10-21T10:32:32.908Z,4.07
2022-10-21T10:35:17.808Z,3.97
2022-10-21T10:37:49.937Z,3.91
2022-10-21T10:40:29.115Z,3.90
2022-10-21T10:43:03.937Z,3.94
2022-10-21T10:45:31.218Z,3.97
2022-10-21T10:48:00.784Z,3.99
2022-10-21T10:50:45.941Z,4.03
2022-10-21T10:53:50.040Z,4.16
2022-10-21T10:56:30.216Z,4.25
2022-10-21T10:59:27.271Z,4.37
2022-10-21T11:02:09.944Z,4.33
2022-10-21T11:04:56.484Z,4.29
2022-10-21T11:07:43.956Z,4.29
2022-10-21T11:10:21.813Z,4.36
2022-10-21T11:12:51.629Z,4.45
2022-10-21T11:15:19.498Z,4.50
2022-10-21T11:18:17.122Z,4.49
2022-10-21T11:21:15.792Z,4.53
2022-10-21T11:24:00.927Z,4.53
2022-10-21T11:26:37.252Z,4.45
2022-10-21T11:29:34.796Z,4.53
2022-10-21T11:32:12.728Z,4.53
2022-10-21T11:34:51.139Z,4.55
2022-10-21T11:37:22.509Z,4.55
2022-10-21T11:39:52.404Z,4.66
2022-10-21T11:45:32.420Z,4.66
2022-10-21T11:48:26.880Z,4.55
2022-10-21T11:51:16.997Z,4.51
2022-10-21T11:53:51.962Z,4.52
2022-10-21T11:56:45.753Z,4.56
2022-10-21T11:59:56.653Z,4.59
2022-10-21T12:02:44.817Z,4.62
2022-10-21T12:05:36.289Z,4.61
2022-10-21T12:08:14.033Z,4.61
2022-10-21T12:10:51.949Z,4.55
2022-10-21T12:13:25.197Z,4.50
2022-10-21T12:15:56.309Z,4.45
2022-10-21T12:18:28.252Z,4.43
2022-10-21T12:20:56.968Z,4.48
2022-10-21T12:23:26.119Z,4.47
2022-10-21T12:26:10.504Z,4.46
2022-10-21T12:28:43.424Z,4.48
2022-10-21T12:31:28.971Z,4.50
2022-10-21T12:33:56.438Z,4.53
2022-10-21T12:36:23.583Z,4.52
2022-10-21T12:38:54.959Z,4.49
2022-10-21T12:41:25.019Z,4.53
2022-10-21T12:44:01.090Z,4.64
2022-10-21T12:46:40.625Z,4.64
2022-10-21T12:49:10.802Z,4.70
2022-10-21T12:51:40.193Z,4.67
2022-10-21T12:54:15.423Z,4.68
2022-10-21T12:57:01.907Z,4.69
2022-10-21T12:59:35.108Z,4.62
2022-10-21T13:02:05.263Z,4.61
2022-10-21T13:04:32.208Z,4.55
2022-10-21T13:07:17.832Z,4.58
2022-10-21T13:09:54.056Z,4.60
2022-10-21T13:12:26.030Z,4.60
2022-10-21T13:14:54.235Z,4.63
2022-10-21T13:17:21.073Z,4.63
2022-10-21T13:19:53.054Z,4.61
2022-10-21T13:22:22.795Z,4.58
2022-10-21T13:24:50.203Z,4.52
2022-10-21T13:27:30.155Z,4.52
2022-10-21T13:29:57.593Z,4.46
2022-10-21T13:32:27.421Z,4.46
2022-10-21T13:35:30.379Z,4.48
2022-10-21T13:38:01.551Z,4.42
2022-10-21T13:40:44.462Z,4.39
2022-10-21T13:43:15.721Z,4.31
2022-10-21T13:45:50.742Z,4.30
2022-10-21T13:48:18.909Z,4.33
2022-10-21T13:50:47.986Z,4.34
2022-10-21T13:53:22.053Z,4.35
2022-10-21T13:55:58.653Z,4.29
2022-10-21T13:58:26.895Z,4.29
2022-10-21T14:00:57.920Z,4.29
2022-10-21T14:03:31.654Z,4.27
2022-10-21T14:06:02.797Z,4.28
2022-10-21T14:08:33.324Z,4.32
2022-10-21T14:11:14.793Z,4.25
2022-10-21T14:13:42.213Z,4.24
2022-10-21T14:16:09.555Z,4.21
2022-10-21T14:18:48.834Z,4.21
2022-10-21T14:21:20.973Z,4.22
2022-10-21T14:23:48.319Z,4.21
2022-10-21T14:26:15.596Z,4.23
2022-10-21T14:28:45.667Z,4.25
2022-10-21T14:31:16.866Z,4.25
2022-10-21T14:33:47.200Z,4.23
2022-10-21T14:36:16.215Z,4.22
2022-10-21T14:39:00.738Z,4.25
2022-10-21T14:41:41.967Z,4.25
2022-10-21T14:44:19.881Z,4.25
2022-10-21T14:46:49.308Z,4.23
2022-10-21T14:49:28.219Z,4.24
2022-10-21T14:52:00.453Z,4.22
2022-10-21T14:54:40.396Z,4.20
2022-10-21T14:57:29.518Z,4.15
2022-10-21T14:59:56.709Z,4.10
2022-10-21T15:02:28.496Z,4.10
2022-10-21T15:05:26.787Z,4.09
2022-10-21T15:08:19.455Z,4.13
2022-10-21T15:11:02.485Z,4.10
2022-10-21T15:13:29.508Z,4.08
2022-10-21T15:15:58.092Z,4.10
2022-10-21T15:18:50.413Z,4.10
2022-10-21T15:21:54.150Z,4.07
2022-10-21T15:24:29.500Z,3.99
2022-10-21T15:26:58.551Z,4.00
2022-10-21T15:29:28.782Z,3.99
2022-10-21T15:31:57.255Z,3.92
2022-10-21T15:34:24.521Z,3.95
2022-10-21T15:36:51.427Z,3.97
2022-10-21T15:39:18.441Z,4.00
2022-10-21T15:41:45.704Z,3.98
2022-10-21T15:44:27.557Z,4.02
2022-10-21T15:47:00.539Z,3.99
2022-10-21T15:49:31.841Z,3.97
2022-10-21T15:51:58.880Z,3.98
2022-10-21T15:54:25.916Z,3.96
2022-10-21T15:56:55.010Z,3.94
2022-10-21T15:59:26.609Z,3.91
2022-10-21T16:01:54.857Z,3.85
2022-10-21T16:04:22.664Z,3.82
2022-10-21T16:06:55.360Z,3.77
2022-10-21T16:09:28.532Z,3.66
2022-10-21T16:12:00.719Z,3.62
2022-10-21T16:14:30.035Z,3.58
2022-10-21T16:16:58.730Z,3.62
2022-10-21T16:19:25.724Z,3.59
2022-10-21T16:21:55.786Z,3.62
2022-10-21T16:24:23.015Z,3.66
2022-10-21T16:26:55.676Z,3.69
2022-10-21T16:29:24.786Z,3.75
2022-10-21T16:31:56.497Z,3.75
2022-10-21T16:34:23.417Z,3.75
2022-10-21T16:36:50.371Z,3.71
2022-10-21T16:39:20.438Z,3.58
2022-10-21T16:41:47.442Z,3.50
2022-10-21T16:44:14.980Z,3.47
2022-10-21T16:46:49.652Z,3.45
2022-10-21T16:49:21.402Z,3.47
2022-10-21T16:51:48.927Z,3.53
2022-10-21T16:54:16.145Z,3.58
2022-10-21T16:56:43.260Z,3.61
2022-10-21T16:59:10.432Z,3.62
2022-10-21T17:01:37.504Z,3.56
2022-10-21T17:04:04.731Z,3.50
2022-10-21T17:06:31.872Z,3.46
2022-10-21T17:08:59.125Z,3.41
2022-10-21T17:11:35.886Z,3.33
2022-10-21T17:14:05.237Z,3.27
2022-10-21T17:16:32.948Z,3.23
2022-10-21T17:19:00.213Z,3.16
2022-10-21T17:21:32.822Z,3.14
2022-10-21T17:24:01.729Z,3.13
2022-10-21T17:26:30.268Z,3.19
2022-10-21T17:28:58.005Z,3.20
2022-10-21T17:31:27.897Z,3.15
2022-10-21T17:33:57.633Z,3.10
2022-10-21T17:36:24.806Z,3.07
2022-10-21T17:38:52.832Z,3.07
2022-10-21T17:41:21.669Z,3.08
2022-10-21T17:43:48.771Z,3.08
2022-10-21T17:46:24.844Z,3.11
2022-10-21T17:48:59.556Z,3.18
2022-10-21T17:51:32.639Z,3.14
2022-10-21T17:54:04.128Z,3.16
2022-10-21T17:56:36.903Z,3.13
2022-10-21T17:59:04.114Z,3.10
2022-10-21T18:01:31.160Z,3.07
2022-10-21T18:04:07.553Z,3.13
2022-10-21T18:06:34.852Z,3.18
2022-10-21T18:09:06.789Z,3.18
2022-10-21T18:11:34.437Z,3.22
2022-10-21T18:14:04.289Z,3.21
2022-10-21T18:16:31.651Z,3.18
2022-10-21T18:19:01.902Z,3.11
2022-10-21T18:21:32.929Z,3.15
2022-10-21T18:24:03.236Z,3.15
2022-10-21T18:26:34.029Z,3.16
2022-10-21T18:29:02.892Z,3.18
2022-10-21T18:31:33.169Z,3.21
2022-10-21T18:34:02.598Z,3.25
2022-10-21T18:36:32.085Z,3.23
2022-10-21T18:39:04.193Z,3.29
2022-10-21T18:41:32.834Z,3.30
2022-10-21T18:44:08.350Z,3.26
2022-10-21T18:46:44.694Z,3.28
2022-10-21T18:49:15.425Z,3.29
2022-10-21T18:51:42.481Z,3.28
2022-10-21T18:54:12.265Z,3.31
2022-10-21T18:56:41.231Z,3.32
2022-10-21T18:59:19.391Z,3.33
2022-10-21T19:05:33.971Z,3.31
2022-10-21T19:08:04.445Z,3.41
2022-10-21T19:10:38.133Z,3.41
2022-10-21T19:13:13.611Z,3.43
2022-10-21T19:15:43.753Z,3.40
2022-10-21T19:18:13.762Z,3.37
2022-10-21T19:20:47.553Z,3.37
2022-10-21T19:23:26.280Z,3.32
2022-10-21T19:26:02.337Z,3.32
2022-10-21T19:28:33.252Z,3.22
2022-10-21T19:31:03.598Z,3.24
2022-10-21T19:33:43.956Z,3.41
2022-10-21T19:36:18.138Z,3.26
2022-10-21T19:38:48.047Z,3.29
2022-10-21T19:41:23.279Z,3.24
2022-10-21T19:43:54.898Z,3.17
2022-10-21T19:46:34.031Z,3.10
2022-10-21T19:49:02.223Z,3.14
2022-10-21T19:51:33.807Z,3.05
2022-10-21T19:54:04.689Z,3.12
2022-10-21T19:56:37.419Z,3.09
2022-10-21T19:59:05.119Z,3.10
2022-10-21T20:01:35.235Z,3.06
2022-10-21T20:04:07.548Z,3.11
2022-10-21T20:06:36.654Z,3.13
2022-10-21T20:09:10.663Z,3.14
2022-10-21T20:11:39.968Z,3.04
2022-10-21T20:14:08.878Z,3.11
2022-10-21T20:16:39.471Z,3.14
2022-10-21T20:19:08.174Z,3.10
2022-10-21T20:21:36.065Z,3.13
2022-10-21T20:24:03.345Z,3.25
2022-10-21T20:29:30.040Z,3.30
2022-10-21T20:31:59.873Z,3.35
2022-10-21T20:34:27.088Z,3.33
2022-10-21T20:36:54.023Z,3.31
2022-10-21T20:39:23.616Z,3.33
2022-10-21T20:41:50.724Z,3.27
2022-10-21T20:44:17.724Z,3.29
2022-10-21T20:46:48.312Z,3.26
2022-10-21T20:49:15.666Z,3.27
2022-10-21T20:51:43.037Z,3.31
2022-10-21T20:54:14.169Z,3.35
2022-10-21T20:56:43.437Z,3.39
2022-10-21T20:59:17.734Z,3.43
2022-10-21T21:01:49.708Z,3.44
2022-10-21T21:04:17.775Z,3.43
2022-10-21T21:06:47.226Z,3.38
2022-10-21T21:09:37.718Z,3.36
2022-10-21T21:12:03.900Z,3.34
2022-10-21T21:14:35.983Z,3.33
2022-10-21T21:17:04.839Z,3.29
2022-10-21T21:19:32.535Z,3.25
2022-10-21T21:21:59.438Z,3.22
2022-10-21T21:24:26.716Z,3.22
2022-10-21T21:26:56.444Z,3.24
2022-10-21T21:29:28.279Z,3.25
2022-10-21T21:31:57.760Z,3.26
2022-10-21T21:34:24.851Z,3.25
2022-10-21T21:36:51.712Z,3.24
2022-10-21T21:39:18.571Z,3.24
2022-10-21T21:41:45.834Z,3.24
2022-10-21T21:44:12.754Z,3.26
2022-10-21T21:46:40.460Z,3.27
2022-10-21T21:49:07.504Z,3.31
2022-10-21T21:51:36.053Z,3.32
2022-10-21T21:54:04.462Z,3.33
2022-10-21T21:56:32.844Z,3.34
2022-10-21T21:58:59.766Z,3.31
2022-10-21T22:01:28.730Z,3.30
2022-10-21T22:03:56.497Z,3.25
2022-10-21T22:08:59.612Z,3.13
2022-10-21T22:11:29.622Z,3.13
2022-10-21T22:13:56.538Z,3.15
2022-10-21T22:16:25.901Z,3.19
2022-10-21T22:18:54.160Z,3.24
2022-10-21T22:21:21.400Z,3.27
2022-10-21T22:23:49.267Z,3.30
2022-10-21T22:26:18.302Z,3.32
2022-10-21T22:28:45.788Z,3.33
2022-10-21T22:31:15.318Z,3.35
2022-10-21T22:36:11.452Z,3.44
2022-10-21T22:38:38.460Z,3.45
2022-10-21T22:41:09.840Z,3.41
2022-10-21T22:43:38.425Z,3.42
2022-10-21T22:46:21.580Z,3.43
2022-10-21T22:48:49.013Z,3.42
2022-10-21T22:51:16.091Z,3.44
2022-10-21T22:53:42.976Z,3.44
2022-10-21T22:56:11.881Z,3.46
2022-10-21T22:58:38.859Z,3.50
2022-10-21T23:01:07.958Z,3.50
2022-10-21T23:03:35.091Z,3.42
2022-10-21T23:06:02.547Z,3.41
2022-10-21T23:08:29.471Z,3.40
2022-10-21T23:10:56.979Z,3.38
2022-10-21T23:13:23.923Z,3.41
2022-10-21T23:15:50.839Z,3.42
2022-10-21T23:18:19.637Z,3.38
2022-10-21T23:20:46.616Z,3.42
2022-10-21T23:23:13.924Z,3.46
2022-10-21T23:25:40.959Z,3.47
2022-10-21T23:28:09.974Z,3.47
2022-10-21T23:30:38.175Z,3.49
2022-10-21T23:33:05.180Z,3.50
2022-10-21T23:35:32.528Z,3.55
2022-10-21T23:37:59.570Z,3.54
2022-10-21T23:40:27.069Z,3.46
2022-10-21T23:42:54.172Z,3.48
2022-10-21T23:45:22.034Z,3.52
2022-10-21T23:47:49.449Z,3.49
2022-10-21T23:50:16.828Z,3.52
2022-10-21T23:52:43.753Z,3.47
2022-10-21T23:55:10.766Z,3.44
2022-10-21T23:57:39.058Z,3.48
